sensor_id;sensor_type;location;lat;lon;timestamp;P1;P2;P0
35654;PMS1003;21773;50.010;19.972;2023-04-25T00:02:29;15.80;14.60;13.00
35654;PMS1003;21773;50.010;19.972;2023-04-25T00:05:35;17.00;16.00;14.00
35654;PMS1003;21773;50.010;19.972;2023-04-25T00:08:41;14.75;14.75;12.25
35654;PMS1003;21773;50.010;19.972;2023-04-25T00:11:44;12.40;11.40;11.00
35654;PMS1003;21773;50.010;19.972;2023-04-25T00:14:47;12.00;12.00;10.60
35654;PMS1003;21773;50.010;19.972;2023-04-25T00:17:52;9.60;9.00;8.60
35654;PMS1003;21773;50.010;19.972;2023-04-25T00:20:57;6.00;6.00;6.00
35654;PMS1003;21773;50.010;19.972;2023-04-25T00:24:01;6.25;6.25;6.00
35654;PMS1003;21773;50.010;19.972;2023-04-25T00:27:04;7.00;7.00;7.00
35654;PMS1003;21773;50.010;19.972;2023-04-25T00:30:08;6.00;4.50;4.50
35654;PMS1003;21773;50.010;19.972;2023-04-25T00:33:12;4.75;4.75;4.75
35654;PMS1003;21773;50.010;19.972;2023-04-25T00:36:17;6.60;6.60;6.40
35654;PMS1003;21773;50.010;19.972;2023-04-25T00:39:20;5.50;5.00;4.75
35654;PMS1003;21773;50.010;19.972;2023-04-25T00:42:24;4.00;3.40;3.40
35654;PMS1003;21773;50.010;19.972;2023-04-25T00:45:28;4.00;4.00;4.00
35654;PMS1003;21773;50.010;19.972;2023-04-25T00:48:32;4.75;4.75;4.75
35654;PMS1003;21773;50.010;19.972;2023-04-25T00:51:36;5.00;5.00;4.00
35654;PMS1003;21773;50.010;19.972;2023-04-25T00:54:40;4.20;4.00;3.80
35654;PMS1003;21773;50.010;19.972;2023-04-25T00:57:43;5.00;5.00;5.00
35654;PMS1003;21773;50.010;19.972;2023-04-25T01:00:47;5.00;4.00;3.40
35654;PMS1003;21773;50.010;19.972;2023-04-25T01:03:52;4.00;4.00;4.00
35654;PMS1003;21773;50.010;19.972;2023-04-25T01:06:59;7.00;7.00;6.75
35654;PMS1003;21773;50.010;19.972;2023-04-25T01:10:04;7.00;5.00;5.00
35654;PMS1003;21773;50.010;19.972;2023-04-25T01:13:09;7.60;7.00;6.60
35654;PMS1003;21773;50.010;19.972;2023-04-25T01:16:12;8.00;7.00;7.00
35654;PMS1003;21773;50.010;19.972;2023-04-25T01:19:16;6.00;5.80;5.00
35654;PMS1003;21773;50.010;19.972;2023-04-25T01:22:22;8.00;8.00;7.00
35654;PMS1003;21773;50.010;19.972;2023-04-25T01:25:25;7.00;7.00;7.00
35654;PMS1003;21773;50.010;19.972;2023-04-25T01:28:29;7.40;6.40;6.00
35654;PMS1003;21773;50.010;19.972;2023-04-25T01:31:33;7.25;7.25;7.00
35654;PMS1003;21773;50.010;19.972;2023-04-25T01:34:39;10.00;10.00;8.00
35654;PMS1003;21773;50.010;19.972;2023-04-25T01:37:44;8.33;8.00;7.00
35654;PMS1003;21773;50.010;19.972;2023-04-25T01:40:48;7.00;7.00;5.60
35654;PMS1003;21773;50.010;19.972;2023-04-25T01:43:53;8.00;7.00;5.50
35654;PMS1003;21773;50.010;19.972;2023-04-25T01:46:57;8.00;7.25;6.25
35654;PMS1003;21773;50.010;19.972;2023-04-25T01:50:02;8.00;7.00;6.00
35654;PMS1003;21773;50.010;19.972;2023-04-25T01:53:08;7.00;7.00;7.00
35654;PMS1003;21773;50.010;19.972;2023-04-25T01:56:12;8.00;7.60;7.00
35654;PMS1003;21773;50.010;19.972;2023-04-25T01:59:16;9.00;8.00;7.60
35654;PMS1003;21773;50.010;19.972;2023-04-25T02:02:39;9.80;8.00;7.00
35654;PMS1003;21773;50.010;19.972;2023-04-25T02:05:59;9.00;8.50;8.00
35654;PMS1003;21773;50.010;19.972;2023-04-25T02:09:06;10.00;9.00;9.00
35654;PMS1003;21773;50.010;19.972;2023-04-25T02:12:13;9.00;8.80;8.00
35654;PMS1003;21773;50.010;19.972;2023-04-25T02:15:29;9.80;9.00;8.00
35654;PMS1003;21773;50.010;19.972;2023-04-25T02:18:43;10.00;10.00;8.00
35654;PMS1003;21773;50.010;19.972;2023-04-25T02:21:47;10.00;10.00;8.00
35654;PMS1003;21773;50.010;19.972;2023-04-25T02:24:52;10.75;9.00;8.00
35654;PMS1003;21773;50.010;19.972;2023-04-25T02:27:56;10.00;9.60;9.00
35654;PMS1003;21773;50.010;19.972;2023-04-25T02:30:59;10.00;8.00;7.00
35654;PMS1003;21773;50.010;19.972;2023-04-25T02:34:04;9.00;9.00;8.00
35654;PMS1003;21773;50.010;19.972;2023-04-25T02:37:10;9.25;8.00;8.00
35654;PMS1003;21773;50.010;19.972;2023-04-25T02:40:15;8.40;8.40;8.00
35654;PMS1003;21773;50.010;19.972;2023-04-25T02:43:18;5.25;5.25;5.25
35654;PMS1003;21773;50.010;19.972;2023-04-25T02:46:22;9.60;9.60;9.00
35654;PMS1003;21773;50.010;19.972;2023-04-25T02:49:40;7.00;7.00;6.00
35654;PMS1003;21773;50.010;19.972;2023-04-25T02:52:43;6.80;6.80;6.00
35654;PMS1003;21773;50.010;19.972;2023-04-25T02:55:52;10.40;10.40;9.40
35654;PMS1003;21773;50.010;19.972;2023-04-25T02:58:56;8.00;6.40;6.00
35654;PMS1003;21773;50.010;19.972;2023-04-25T03:01:59;7.40;7.40;7.00
35654;PMS1003;21773;50.010;19.972;2023-04-25T03:05:03;7.20;7.20;6.20
35654;PMS1003;21773;50.010;19.972;2023-04-25T03:08:07;9.00;8.00;7.00
35654;PMS1003;21773;50.010;19.972;2023-04-25T03:11:13;11.00;10.00;9.00
35654;PMS1003;21773;50.010;19.972;2023-04-25T03:14:17;12.00;12.00;10.40
35654;PMS1003;21773;50.010;19.972;2023-04-25T03:17:21;13.00;12.00;12.00
35654;PMS1003;21773;50.010;19.972;2023-04-25T03:20:24;14.00;12.40;12.00
35654;PMS1003;21773;50.010;19.972;2023-04-25T03:23:27;12.80;11.80;10.80
35654;PMS1003;21773;50.010;19.972;2023-04-25T03:26:32;14.50;12.50;11.00
35654;PMS1003;21773;50.010;19.972;2023-04-25T03:29:35;13.75;12.75;11.00
35654;PMS1003;21773;50.010;19.972;2023-04-25T03:32:39;11.50;11.00;9.50
35654;PMS1003;21773;50.010;19.972;2023-04-25T03:35:43;14.00;13.00;12.60
35654;PMS1003;21773;50.010;19.972;2023-04-25T03:38:47;11.25;10.25;9.00
35654;PMS1003;21773;50.010;19.972;2023-04-25T03:41:53;11.20;10.20;8.80
35654;PMS1003;21773;50.010;19.972;2023-04-25T03:44:56;11.00;11.00;10.00
35654;PMS1003;21773;50.010;19.972;2023-04-25T03:47:59;11.00;10.20;9.00
35654;PMS1003;21773;50.010;19.972;2023-04-25T03:51:04;11.00;9.00;8.00
35654;PMS1003;21773;50.010;19.972;2023-04-25T03:54:11;12.00;11.00;9.25
35654;PMS1003;21773;50.010;19.972;2023-04-25T03:57:15;12.00;10.00;9.75
35654;PMS1003;21773;50.010;19.972;2023-04-25T04:00:19;11.80;10.20;9.00
35654;PMS1003;21773;50.010;19.972;2023-04-25T04:03:25;12.00;11.50;10.50
35654;PMS1003;21773;50.010;19.972;2023-04-25T04:06:30;11.50;11.00;10.00
35654;PMS1003;21773;50.010;19.972;2023-04-25T04:09:42;9.40;9.40;8.40
35654;PMS1003;21773;50.010;19.972;2023-04-25T04:12:53;11.00;10.40;9.40
35654;PMS1003;21773;50.010;19.972;2023-04-25T04:15:56;13.40;12.00;10.40
35654;PMS1003;21773;50.010;19.972;2023-04-25T04:19:00;13.00;12.00;11.00
35654;PMS1003;21773;50.010;19.972;2023-04-25T04:22:04;12.25;11.25;9.25
35654;PMS1003;21773;50.010;19.972;2023-04-25T04:25:09;15.40;14.00;12.00
35654;PMS1003;21773;50.010;19.972;2023-04-25T04:28:44;14.33;13.00;12.33
35654;PMS1003;21773;50.010;19.972;2023-04-25T04:32:07;15.40;13.00;11.40
35654;PMS1003;21773;50.010;19.972;2023-04-25T04:35:11;12.00;12.00;11.00
35654;PMS1003;21773;50.010;19.972;2023-04-25T04:38:14;15.00;14.00;13.00
35654;PMS1003;21773;50.010;19.972;2023-04-25T04:41:18;13.00;12.00;11.00
35654;PMS1003;21773;50.010;19.972;2023-04-25T04:44:28;12.80;12.80;10.20
35654;PMS1003;21773;50.010;19.972;2023-04-25T04:47:44;13.00;13.00;12.00
35654;PMS1003;21773;50.010;19.972;2023-04-25T04:50:52;14.00;14.00;12.00
35654;PMS1003;21773;50.010;19.972;2023-04-25T04:54:19;16.00;14.00;13.00
35654;PMS1003;21773;50.010;19.972;2023-04-25T04:57:42;14.00;13.00;12.00
35654;PMS1003;21773;50.010;19.972;2023-04-25T05:00:47;15.00;14.00;12.00
35654;PMS1003;21773;50.010;19.972;2023-04-25T05:04:09;15.40;14.40;12.40
35654;PMS1003;21773;50.010;19.972;2023-04-25T05:07:32;14.40;14.00;12.40
35654;PMS1003;21773;50.010;19.972;2023-04-25T05:10:35;15.20;14.20;12.20
35654;PMS1003;21773;50.010;19.972;2023-04-25T05:14:06;15.40;14.40;13.00
35654;PMS1003;21773;50.010;19.972;2023-04-25T05:17:22;15.00;14.80;12.80
35654;PMS1003;21773;50.010;19.972;2023-04-25T05:20:48;14.00;14.00;12.00
35654;PMS1003;21773;50.010;19.972;2023-04-25T05:24:15;13.75;12.75;11.00
35654;PMS1003;21773;50.010;19.972;2023-04-25T05:27:37;13.75;13.00;11.75
35654;PMS1003;21773;50.010;19.972;2023-04-25T05:30:58;12.60;12.60;10.60
35654;PMS1003;21773;50.010;19.972;2023-04-25T05:34:07;12.00;12.00;10.00
35654;PMS1003;21773;50.010;19.972;2023-04-25T05:37:25;12.00;10.50;9.00
35654;PMS1003;21773;50.010;19.972;2023-04-25T05:40:33;10.40;10.40;9.40
35654;PMS1003;21773;50.010;19.972;2023-04-25T05:43:46;11.75;11.00;10.00
35654;PMS1003;21773;50.010;19.972;2023-04-25T05:47:06;10.00;10.00;9.00
35654;PMS1003;21773;50.010;19.972;2023-04-25T05:50:29;9.60;9.00;9.00
35654;PMS1003;21773;50.010;19.972;2023-04-25T05:53:45;10.00;9.80;8.40
35654;PMS1003;21773;50.010;19.972;2023-04-25T05:56:49;9.50;9.00;8.00
35654;PMS1003;21773;50.010;19.972;2023-04-25T05:59:52;9.00;8.50;7.00
35654;PMS1003;21773;50.010;19.972;2023-04-25T06:03:00;6.00;6.00;5.00
35654;PMS1003;21773;50.010;19.972;2023-04-25T06:06:05;9.20;8.00;7.00
35654;PMS1003;21773;50.010;19.972;2023-04-25T06:09:09;6.00;5.75;5.00
35654;PMS1003;21773;50.010;19.972;2023-04-25T06:12:15;6.00;5.00;4.60
35654;PMS1003;21773;50.010;19.972;2023-04-25T06:15:20;5.00;4.60;3.60
35654;PMS1003;21773;50.010;19.972;2023-04-25T06:18:29;6.00;6.00;6.00
35654;PMS1003;21773;50.010;19.972;2023-04-25T06:21:33;6.00;6.00;5.00
35654;PMS1003;21773;50.010;19.972;2023-04-25T06:24:37;6.20;5.20;4.80
35654;PMS1003;21773;50.010;19.972;2023-04-25T06:27:40;8.00;7.00;6.00
35654;PMS1003;21773;50.010;19.972;2023-04-25T06:30:44;5.00;5.00;4.00
35654;PMS1003;21773;50.010;19.972;2023-04-25T06:33:51;7.00;7.00;6.00
35654;PMS1003;21773;50.010;19.972;2023-04-25T06:37:00;6.75;6.75;5.75
35654;PMS1003;21773;50.010;19.972;2023-04-25T06:40:03;7.00;6.75;6.00
35654;PMS1003;21773;50.010;19.972;2023-04-25T06:43:09;5.40;5.40;5.00
35654;PMS1003;21773;50.010;19.972;2023-04-25T06:46:51;8.00;7.60;7.00
35654;PMS1003;21773;50.010;19.972;2023-04-25T06:49:54;6.00;6.00;5.00
35654;PMS1003;21773;50.010;19.972;2023-04-25T06:52:59;6.00;6.00;5.00
35654;PMS1003;21773;50.010;19.972;2023-04-25T06:56:04;8.00;7.00;5.60
35654;PMS1003;21773;50.010;19.972;2023-04-25T06:59:31;7.00;6.00;5.00
35654;PMS1003;21773;50.010;19.972;2023-04-25T07:02:36;7.00;7.00;6.00
35654;PMS1003;21773;50.010;19.972;2023-04-25T07:05:41;6.00;5.00;5.00
35654;PMS1003;21773;50.010;19.972;2023-04-25T07:08:45;4.80;4.80;4.80
35654;PMS1003;21773;50.010;19.972;2023-04-25T07:11:50;4.00;4.00;3.00
35654;PMS1003;21773;50.010;19.972;2023-04-25T07:14:53;5.60;4.60;4.00
35654;PMS1003;21773;50.010;19.972;2023-04-25T07:17:56;5.00;5.00;4.00
35654;PMS1003;21773;50.010;19.972;2023-04-25T07:21:01;5.00;5.00;5.00
35654;PMS1003;21773;50.010;19.972;2023-04-25T07:24:08;5.00;5.00;5.00
35654;PMS1003;21773;50.010;19.972;2023-04-25T07:27:16;5.25;5.00;4.25
35654;PMS1003;21773;50.010;19.972;2023-04-25T07:30:45;7.00;7.00;6.50
35654;PMS1003;21773;50.010;19.972;2023-04-25T07:33:49;7.00;7.00;6.50
35654;PMS1003;21773;50.010;19.972;2023-04-25T07:36:52;8.00;8.00;7.00
35654;PMS1003;21773;50.010;19.972;2023-04-25T07:39:58;7.40;7.40;7.00
35654;PMS1003;21773;50.010;19.972;2023-04-25T07:43:02;7.00;7.00;6.40
35654;PMS1003;21773;50.010;19.972;2023-04-25T07:46:16;5.00;5.00;5.00
35654;PMS1003;21773;50.010;19.972;2023-04-25T07:49:19;5.00;5.00;5.00
35654;PMS1003;21773;50.010;19.972;2023-04-25T07:52:23;5.00;5.00;4.00
35654;PMS1003;21773;50.010;19.972;2023-04-25T07:55:37;5.60;5.00;5.00
35654;PMS1003;21773;50.010;19.972;2023-04-25T07:58:47;5.50;5.00;4.50
35654;PMS1003;21773;50.010;19.972;2023-04-25T08:01:53;4.60;4.60;4.00
35654;PMS1003;21773;50.010;19.972;2023-04-25T08:04:56;6.00;6.00;6.00
35654;PMS1003;21773;50.010;19.972;2023-04-25T08:08:00;8.00;8.00;7.00
35654;PMS1003;21773;50.010;19.972;2023-04-25T08:11:05;6.00;5.00;5.00
35654;PMS1003;21773;50.010;19.972;2023-04-25T08:14:09;4.25;4.25;4.25
35654;PMS1003;21773;50.010;19.972;2023-04-25T08:17:14;4.00;4.00;4.00
35654;PMS1003;21773;50.010;19.972;2023-04-25T08:20:19;6.60;5.60;5.00
35654;PMS1003;21773;50.010;19.972;2023-04-25T08:23:24;7.00;7.00;6.00
35654;PMS1003;21773;50.010;19.972;2023-04-25T08:26:38;6.60;6.00;5.40
35654;PMS1003;21773;50.010;19.972;2023-04-25T08:29:45;6.00;6.00;5.40
35654;PMS1003;21773;50.010;19.972;2023-04-25T08:32:49;5.00;5.00;4.80
35654;PMS1003;21773;50.010;19.972;2023-04-25T08:36:02;7.20;6.80;6.00
35654;PMS1003;21773;50.010;19.972;2023-04-25T08:39:06;9.60;9.00;8.60
35654;PMS1003;21773;50.010;19.972;2023-04-25T08:42:20;10.00;10.00;9.00
35654;PMS1003;21773;50.010;19.972;2023-04-25T08:45:25;7.00;7.00;7.00
35654;PMS1003;21773;50.010;19.972;2023-04-25T08:48:32;7.00;7.00;6.40
35654;PMS1003;21773;50.010;19.972;2023-04-25T08:51:40;6.00;6.00;5.50
35654;PMS1003;21773;50.010;19.972;2023-04-25T08:54:50;5.00;5.00;4.75
35654;PMS1003;21773;50.010;19.972;2023-04-25T08:57:58;8.00;7.33;7.00
35654;PMS1003;21773;50.010;19.972;2023-04-25T09:01:03;7.00;7.00;6.20
35654;PMS1003;21773;50.010;19.972;2023-04-25T09:04:14;7.00;6.60;6.60
35654;PMS1003;21773;50.010;19.972;2023-04-25T09:07:18;7.00;7.00;6.00
35654;PMS1003;21773;50.010;19.972;2023-04-25T09:10:24;7.00;7.00;6.00
35654;PMS1003;21773;50.010;19.972;2023-04-25T09:13:31;7.25;7.00;6.25
35654;PMS1003;21773;50.010;19.972;2023-04-25T09:16:58;7.00;6.00;5.40
35654;PMS1003;21773;50.010;19.972;2023-04-25T09:20:13;8.00;7.00;6.25
35654;PMS1003;21773;50.010;19.972;2023-04-25T09:23:17;7.00;6.60;6.00
35654;PMS1003;21773;50.010;19.972;2023-04-25T09:26:22;7.40;7.00;6.00
35654;PMS1003;21773;50.010;19.972;2023-04-25T09:29:30;7.40;7.00;6.40
35654;PMS1003;21773;50.010;19.972;2023-04-25T09:32:34;8.00;8.00;7.00
35654;PMS1003;21773;50.010;19.972;2023-04-25T09:35:39;7.00;7.00;6.50
35654;PMS1003;21773;50.010;19.972;2023-04-25T09:38:48;7.40;7.00;6.00
35654;PMS1003;21773;50.010;19.972;2023-04-25T09:41:58;7.00;7.00;6.25
35654;PMS1003;21773;50.010;19.972;2023-04-25T09:45:05;7.00;6.00;6.00
35654;PMS1003;21773;50.010;19.972;2023-04-25T09:48:16;8.00;7.00;7.00
35654;PMS1003;21773;50.010;19.972;2023-04-25T09:51:25;8.60;7.40;6.00
35654;PMS1003;21773;50.010;19.972;2023-04-25T09:54:32;8.00;8.00;7.00
35654;PMS1003;21773;50.010;19.972;2023-04-25T09:57:41;10.00;9.00;8.00
35654;PMS1003;21773;50.010;19.972;2023-04-25T10:00:50;7.00;7.00;6.00
35654;PMS1003;21773;50.010;19.972;2023-04-25T10:04:07;9.40;9.40;8.00
35654;PMS1003;21773;50.010;19.972;2023-04-25T10:07:22;7.00;7.00;6.20
35654;PMS1003;21773;50.010;19.972;2023-04-25T10:10:27;8.40;8.40;7.40
35654;PMS1003;21773;50.010;19.972;2023-04-25T10:13:35;11.00;11.00;10.60
35654;PMS1003;21773;50.010;19.972;2023-04-25T10:16:40;8.00;8.00;7.00
35654;PMS1003;21773;50.010;19.972;2023-04-25T10:19:45;8.00;8.00;7.00
35654;PMS1003;21773;50.010;19.972;2023-04-25T10:22:50;9.40;9.00;8.40
35654;PMS1003;21773;50.010;19.972;2023-04-25T10:25:58;8.00;7.00;7.00
35654;PMS1003;21773;50.010;19.972;2023-04-25T10:29:03;6.00;6.00;5.00
35654;PMS1003;21773;50.010;19.972;2023-04-25T10:32:08;5.00;5.00;4.50
35654;PMS1003;21773;50.010;19.972;2023-04-25T10:35:12;7.00;7.00;6.00
35654;PMS1003;21773;50.010;19.972;2023-04-25T10:38:17;6.00;6.00;6.00
35654;PMS1003;21773;50.010;19.972;2023-04-25T10:41:21;4.25;4.25;4.00
35654;PMS1003;21773;50.010;19.972;2023-04-25T10:44:26;6.40;6.00;6.00
35654;PMS1003;21773;50.010;19.972;2023-04-25T10:47:35;4.00;4.00;3.60
35654;PMS1003;21773;50.010;19.972;2023-04-25T10:50:39;7.40;7.00;6.40
35654;PMS1003;21773;50.010;19.972;2023-04-25T10:53:43;6.00;6.00;5.00
35654;PMS1003;21773;50.010;19.972;2023-04-25T10:56:48;4.75;4.75;4.50
35654;PMS1003;21773;50.010;19.972;2023-04-25T10:59:53;7.00;7.00;7.00
35654;PMS1003;21773;50.010;19.972;2023-04-25T11:02:58;6.00;6.00;6.00
35654;PMS1003;21773;50.010;19.972;2023-04-25T11:06:03;7.00;6.50;6.00
35654;PMS1003;21773;50.010;19.972;2023-04-25T11:09:10;4.25;4.00;4.00
35654;PMS1003;21773;50.010;19.972;2023-04-25T11:12:15;7.25;7.25;6.25
35654;PMS1003;21773;50.010;19.972;2023-04-25T11:15:19;8.00;8.00;8.00
35654;PMS1003;21773;50.010;19.972;2023-04-25T11:18:27;8.00;7.00;7.00
35654;PMS1003;21773;50.010;19.972;2023-04-25T11:21:30;8.25;8.25;7.25
35654;PMS1003;21773;50.010;19.972;2023-04-25T11:24:36;9.00;9.00;8.00
35654;PMS1003;21773;50.010;19.972;2023-04-25T11:27:48;11.00;10.00;9.60
35654;PMS1003;21773;50.010;19.972;2023-04-25T11:30:53;7.00;6.40;5.40
35654;PMS1003;21773;50.010;19.972;2023-04-25T11:33:57;9.00;9.00;8.00
35654;PMS1003;21773;50.010;19.972;2023-04-25T11:37:01;7.50;7.50;7.00
35654;PMS1003;21773;50.010;19.972;2023-04-25T11:40:05;8.40;8.40;8.00
35654;PMS1003;21773;50.010;19.972;2023-04-25T11:43:11;8.20;8.20;8.00
35654;PMS1003;21773;50.010;19.972;2023-04-25T11:46:15;9.00;9.00;8.75
35654;PMS1003;21773;50.010;19.972;2023-04-25T11:49:20;10.00;10.00;9.00
35654;PMS1003;21773;50.010;19.972;2023-04-25T11:52:23;10.00;9.00;9.00
35654;PMS1003;21773;50.010;19.972;2023-04-25T11:55:27;8.00;8.00;7.00
35654;PMS1003;21773;50.010;19.972;2023-04-25T11:58:33;8.75;8.25;7.00
35654;PMS1003;21773;50.010;19.972;2023-04-25T12:01:57;8.25;8.00;7.25
35654;PMS1003;21773;50.010;19.972;2023-04-25T12:05:04;11.00;9.60;8.60
35654;PMS1003;21773;50.010;19.972;2023-04-25T12:08:30;8.50;8.50;8.25
35654;PMS1003;21773;50.010;19.972;2023-04-25T12:11:40;7.60;7.60;7.00
35654;PMS1003;21773;50.010;19.972;2023-04-25T12:14:46;10.00;9.00;9.00
35654;PMS1003;21773;50.010;19.972;2023-04-25T12:17:50;9.00;8.00;8.00
35654;PMS1003;21773;50.010;19.972;2023-04-25T12:20:57;9.00;9.00;8.00
35654;PMS1003;21773;50.010;19.972;2023-04-25T12:24:09;6.80;6.60;6.20
35654;PMS1003;21773;50.010;19.972;2023-04-25T12:27:14;9.00;8.40;8.00
35654;PMS1003;21773;50.010;19.972;2023-04-25T12:30:20;8.00;8.00;7.00
35654;PMS1003;21773;50.010;19.972;2023-04-25T12:34:08;7.50;7.00;6.00
35654;PMS1003;21773;50.010;19.972;2023-04-25T12:37:11;8.00;7.00;7.00
35654;PMS1003;21773;50.010;19.972;2023-04-25T12:40:15;7.40;7.00;6.00
35654;PMS1003;21773;50.010;19.972;2023-04-25T12:43:18;7.00;6.40;6.40
35654;PMS1003;21773;50.010;19.972;2023-04-25T12:46:23;6.60;6.00;5.00
35654;PMS1003;21773;50.010;19.972;2023-04-25T12:49:27;6.60;6.60;6.00
35654;PMS1003;21773;50.010;19.972;2023-04-25T12:52:31;6.00;6.00;6.00
35654;PMS1003;21773;50.010;19.972;2023-04-25T12:55:34;6.00;6.00;5.50
35654;PMS1003;21773;50.010;19.972;2023-04-25T12:58:38;11.00;10.25;9.25
35654;PMS1003;21773;50.010;19.972;2023-04-25T13:01:42;9.75;9.75;8.75
35654;PMS1003;21773;50.010;19.972;2023-04-25T13:04:47;11.00;11.00;10.00
35654;PMS1003;21773;50.010;19.972;2023-04-25T13:07:50;8.50;7.50;7.50
35654;PMS1003;21773;50.010;19.972;2023-04-25T13:10:54;8.00;8.00;7.00
35654;PMS1003;21773;50.010;19.972;2023-04-25T13:13:57;10.40;10.00;9.00
35654;PMS1003;21773;50.010;19.972;2023-04-25T13:17:00;10.00;9.60;9.00
35654;PMS1003;21773;50.010;19.972;2023-04-25T13:20:06;10.00;9.20;8.60
35654;PMS1003;21773;50.010;19.972;2023-04-25T13:23:11;9.40;9.00;9.00
35654;PMS1003;21773;50.010;19.972;2023-04-25T13:26:14;9.00;9.00;8.60
35654;PMS1003;21773;50.010;19.972;2023-04-25T13:29:19;9.00;9.00;9.00
35654;PMS1003;21773;50.010;19.972;2023-04-25T13:32:22;9.20;8.60;8.00
35654;PMS1003;21773;50.010;19.972;2023-04-25T13:35:28;12.00;11.40;11.00
35654;PMS1003;21773;50.010;19.972;2023-04-25T13:38:31;9.00;7.60;7.00
35654;PMS1003;21773;50.010;19.972;2023-04-25T13:41:35;10.50;9.00;8.50
35654;PMS1003;21773;50.010;19.972;2023-04-25T13:44:38;10.00;10.00;9.00
35654;PMS1003;21773;50.010;19.972;2023-04-25T13:47:42;9.20;9.00;8.20
35654;PMS1003;21773;50.010;19.972;2023-04-25T13:50:46;10.00;10.00;9.00
35654;PMS1003;21773;50.010;19.972;2023-04-25T13:53:50;12.00;11.00;10.00
35654;PMS1003;21773;50.010;19.972;2023-04-25T13:56:53;9.75;8.00;8.00
35654;PMS1003;21773;50.010;19.972;2023-04-25T14:00:00;8.00;8.00;7.50
35654;PMS1003;21773;50.010;19.972;2023-04-25T14:03:07;10.00;10.00;9.00
35654;PMS1003;21773;50.010;19.972;2023-04-25T14:06:11;7.00;7.00;7.00
35654;PMS1003;21773;50.010;19.972;2023-04-25T14:09:15;7.20;7.00;7.00
35654;PMS1003;21773;50.010;19.972;2023-04-25T14:12:18;9.00;8.60;8.00
35654;PMS1003;21773;50.010;19.972;2023-04-25T14:15:21;9.00;8.00;8.00
35654;PMS1003;21773;50.010;19.972;2023-04-25T14:18:25;7.50;7.00;6.00
35654;PMS1003;21773;50.010;19.972;2023-04-25T14:21:30;7.40;7.00;6.40
35654;PMS1003;21773;50.010;19.972;2023-04-25T14:24:34;6.20;6.20;6.00
35654;PMS1003;21773;50.010;19.972;2023-04-25T14:27:38;8.00;7.00;7.00
35654;PMS1003;21773;50.010;19.972;2023-04-25T14:30:41;11.00;11.00;10.00
35654;PMS1003;21773;50.010;19.972;2023-04-25T14:33:44;9.60;9.60;9.00
35654;PMS1003;21773;50.010;19.972;2023-04-25T14:36:49;10.00;10.00;9.60
35654;PMS1003;21773;50.010;19.972;2023-04-25T14:39:52;10.00;10.00;9.60
35654;PMS1003;21773;50.010;19.972;2023-04-25T14:42:56;12.00;11.00;10.00
35654;PMS1003;21773;50.010;19.972;2023-04-25T14:45:59;9.60;8.60;8.00
35654;PMS1003;21773;50.010;19.972;2023-04-25T14:49:03;8.40;8.00;7.00
35654;PMS1003;21773;50.010;19.972;2023-04-25T14:52:08;8.00;8.00;7.00
35654;PMS1003;21773;50.010;19.972;2023-04-25T14:55:12;5.00;5.00;4.60
35654;PMS1003;21773;50.010;19.972;2023-04-25T14:58:15;6.40;6.40;6.00
35654;PMS1003;21773;50.010;19.972;2023-04-25T15:01:19;6.40;6.40;6.00
35654;PMS1003;21773;50.010;19.972;2023-04-25T15:04:23;6.60;6.60;6.00
35654;PMS1003;21773;50.010;19.972;2023-04-25T15:07:29;6.00;6.00;6.00
35654;PMS1003;21773;50.010;19.972;2023-04-25T15:10:32;8.60;8.60;7.60
35654;PMS1003;21773;50.010;19.972;2023-04-25T15:13:35;5.00;4.00;4.00
35654;PMS1003;21773;50.010;19.972;2023-04-25T15:16:39;5.00;4.00;4.00
35654;PMS1003;21773;50.010;19.972;2023-04-25T15:19:42;4.20;4.20;4.20
35654;PMS1003;21773;50.010;19.972;2023-04-25T15:22:47;6.20;6.20;5.20
35654;PMS1003;21773;50.010;19.972;2023-04-25T15:25:50;7.00;7.00;6.40
35654;PMS1003;21773;50.010;19.972;2023-04-25T15:28:54;8.00;7.60;7.00
35654;PMS1003;21773;50.010;19.972;2023-04-25T15:31:58;6.60;6.00;6.00
35654;PMS1003;21773;50.010;19.972;2023-04-25T15:35:02;7.00;7.00;6.00
35654;PMS1003;21773;50.010;19.972;2023-04-25T15:38:08;7.00;7.00;7.00
35654;PMS1003;21773;50.010;19.972;2023-04-25T15:41:12;7.00;6.00;6.00
35654;PMS1003;21773;50.010;19.972;2023-04-25T15:44:16;11.80;10.00;9.00
35654;PMS1003;21773;50.010;19.972;2023-04-25T15:47:19;7.75;7.75;7.00
35654;PMS1003;21773;50.010;19.972;2023-04-25T15:50:23;6.25;5.50;5.50
35654;PMS1003;21773;50.010;19.972;2023-04-25T15:53:28;6.00;6.00;6.00
35654;PMS1003;21773;50.010;19.972;2023-04-25T15:56:32;8.00;8.00;7.50
35654;PMS1003;21773;50.010;19.972;2023-04-25T15:59:35;7.00;6.40;6.00
35654;PMS1003;21773;50.010;19.972;2023-04-25T16:02:39;7.00;7.00;7.00
35654;PMS1003;21773;50.010;19.972;2023-04-25T16:05:44;5.00;5.00;4.75
35654;PMS1003;21773;50.010;19.972;2023-04-25T16:08:49;5.80;5.40;4.80
35654;PMS1003;21773;50.010;19.972;2023-04-25T16:11:53;7.00;6.40;6.00
35654;PMS1003;21773;50.010;19.972;2023-04-25T16:14:57;8.00;7.67;7.00
35654;PMS1003;21773;50.010;19.972;2023-04-25T16:18:00;8.40;7.40;6.40
35654;PMS1003;21773;50.010;19.972;2023-04-25T16:21:04;9.75;8.00;7.75
35654;PMS1003;21773;50.010;19.972;2023-04-25T16:24:09;8.80;8.80;8.00
35654;PMS1003;21773;50.010;19.972;2023-04-25T16:27:12;8.00;7.25;7.00
35654;PMS1003;21773;50.010;19.972;2023-04-25T16:30:16;7.60;7.00;6.20
35654;PMS1003;21773;50.010;19.972;2023-04-25T16:33:19;10.75;8.75;8.00
35654;PMS1003;21773;50.010;19.972;2023-04-25T16:36:22;9.00;9.00;8.00
35654;PMS1003;21773;50.010;19.972;2023-04-25T16:39:27;8.00;7.00;6.60
35654;PMS1003;21773;50.010;19.972;2023-04-25T16:42:31;9.00;9.00;8.60
35654;PMS1003;21773;50.010;19.972;2023-04-25T16:45:34;8.00;7.50;7.00
35654;PMS1003;21773;50.010;19.972;2023-04-25T16:48:37;6.40;6.00;5.40
35654;PMS1003;21773;50.010;19.972;2023-04-25T16:51:40;7.60;7.60;6.60
35654;PMS1003;21773;50.010;19.972;2023-04-25T16:54:45;10.00;9.75;9.00
35654;PMS1003;21773;50.010;19.972;2023-04-25T16:57:48;9.00;9.00;8.60
35654;PMS1003;21773;50.010;19.972;2023-04-25T17:00:52;8.60;8.60;8.00
35654;PMS1003;21773;50.010;19.972;2023-04-25T17:03:55;9.00;9.00;8.00
35654;PMS1003;21773;50.010;19.972;2023-04-25T17:06:59;10.25;10.25;9.00
35654;PMS1003;21773;50.010;19.972;2023-04-25T17:10:04;11.60;10.80;9.60
35654;PMS1003;21773;50.010;19.972;2023-04-25T17:13:07;8.80;8.20;7.80
35654;PMS1003;21773;50.010;19.972;2023-04-25T17:16:11;11.00;11.00;10.40
35654;PMS1003;21773;50.010;19.972;2023-04-25T17:19:17;9.00;8.50;8.00
35654;PMS1003;21773;50.010;19.972;2023-04-25T17:22:20;11.50;11.00;10.50
35654;PMS1003;21773;50.010;19.972;2023-04-25T17:25:25;10.00;9.00;8.00
35654;PMS1003;21773;50.010;19.972;2023-04-25T17:28:28;13.60;12.40;11.60
35654;PMS1003;21773;50.010;19.972;2023-04-25T17:31:32;11.00;11.00;10.60
35654;PMS1003;21773;50.010;19.972;2023-04-25T17:34:35;10.00;9.80;9.20
35654;PMS1003;21773;50.010;19.972;2023-04-25T17:37:40;9.00;9.00;8.40
35654;PMS1003;21773;50.010;19.972;2023-04-25T17:40:45;10.00;10.00;9.00
35654;PMS1003;21773;50.010;19.972;2023-04-25T17:43:49;9.00;9.00;9.00
35654;PMS1003;21773;50.010;19.972;2023-04-25T17:46:52;10.20;9.80;8.00